createdAt,value
2018-03-04T00:01:33.961Z,-2.64
2018-03-04T00:03:36.556Z,-2.64
2018-03-04T00:05:39.058Z,-2.56
2018-03-04T00:07:41.565Z,-2.64
2018-03-04T00:09:44.103Z,-2.62
2018-03-04T00:11:46.570Z,-2.66
2018-03-04T00:13:49.090Z,-2.63
2018-03-04T00:15:51.565Z,-2.57
2018-03-04T00:17:54.036Z,-2.63
2018-03-04T00:19:56.534Z,-2.59
2018-03-04T00:21:59.096Z,-2.50
2018-03-04T00:24:01.574Z,-2.60
2018-03-04T00:26:04.066Z,-2.58
2018-03-04T00:28:06.565Z,-2.73
2018-03-04T00:30:09.061Z,-2.64
2018-03-04T00:32:11.515Z,-2.75
2018-03-04T00:34:14.012Z,-2.68
2018-03-04T00:36:16.551Z,-2.78
2018-03-04T00:38:19.092Z,-2.67
2018-03-04T00:40:21.597Z,-2.59
2018-03-04T00:42:24.122Z,-2.56
2018-03-04T00:44:26.596Z,-2.57
2018-03-04T00:46:29.175Z,-2.56
2018-03-04T00:48:31.698Z,-2.57
2018-03-04T00:50:34.201Z,-2.49
2018-03-04T00:52:36.681Z,-2.57
2018-03-04T00:54:39.177Z,-2.48
2018-03-04T00:56:41.671Z,-2.45
2018-03-04T00:58:44.172Z,-2.47
2018-03-04T01:00:46.666Z,-2.47
2018-03-04T01:02:49.174Z,-2.61
2018-03-04T01:04:51.700Z,-2.58
2018-03-04T01:06:54.190Z,-2.50
2018-03-04T01:08:56.686Z,-2.48
2018-03-04T01:10:59.140Z,-2.44
2018-03-04T01:13:01.701Z,-2.48
2018-03-04T01:15:04.192Z,-2.47
2018-03-04T01:17:06.765Z,-2.64
2018-03-04T01:19:09.218Z,-2.56
2018-03-04T01:21:11.697Z,-2.46
2018-03-04T01:23:14.251Z,-2.45
2018-03-04T01:25:16.767Z,-2.48
2018-03-04T01:27:19.231Z,-2.51
2018-03-04T01:29:21.775Z,-2.45
2018-03-04T01:31:24.326Z,-2.42
2018-03-04T01:33:26.802Z,-2.53
2018-03-04T01:35:29.290Z,-2.53
2018-03-04T01:37:31.840Z,-2.64
2018-03-04T01:39:34.305Z,-2.56
2018-03-04T01:41:36.791Z,-2.56
2018-03-04T01:43:39.303Z,-2.56
2018-03-04T01:45:41.778Z,-2.54
2018-03-04T01:47:44.351Z,-2.52
2018-03-04T01:49:46.858Z,-2.49
2018-03-04T01:51:52.416Z,-2.50
2018-03-04T01:53:54.911Z,-2.54
2018-03-04T01:55:57.567Z,-2.52
2018-03-04T01:58:00.030Z,-2.53
2018-03-04T02:00:02.528Z,-2.56
2018-03-04T02:02:05.021Z,-2.53
2018-03-04T02:04:07.520Z,-2.58
2018-03-04T02:06:10.031Z,-2.59
2018-03-04T02:08:12.528Z,-2.49
2018-03-04T02:10:15.113Z,-2.42
2018-03-04T02:12:17.545Z,-2.58
2018-03-04T02:14:20.019Z,-2.59
2018-03-04T02:16:22.481Z,-2.50
2018-03-04T02:18:24.976Z,-2.39
2018-03-04T02:20:27.493Z,-2.53
2018-03-04T02:22:30.076Z,-2.59
2018-03-04T02:24:32.572Z,-2.50
2018-03-04T02:26:35.102Z,-2.56
2018-03-04T02:28:37.553Z,-2.49
2018-03-04T02:30:40.051Z,-2.48
2018-03-04T02:32:42.650Z,-2.48
2018-03-04T02:34:45.124Z,-2.49
2018-03-04T02:36:47.631Z,-2.47
2018-03-04T02:38:50.117Z,-2.49
2018-03-04T02:40:52.592Z,-2.47
2018-03-04T02:42:55.053Z,-2.63
2018-03-04T02:44:57.552Z,-2.56
2018-03-04T02:46:59.992Z,-2.63
2018-03-04T02:49:02.491Z,-2.66
2018-03-04T02:51:04.993Z,-2.63
2018-03-04T02:53:07.466Z,-2.67
2018-03-04T02:55:09.961Z,-2.65
2018-03-04T02:57:12.488Z,-2.66
2018-03-04T02:59:14.964Z,-2.72
2018-03-04T03:01:17.551Z,-2.73
2018-03-04T03:03:20.047Z,-2.72
2018-03-04T03:05:22.498Z,-2.68
2018-03-04T03:07:25.003Z,-2.69
2018-03-04T03:09:27.473Z,-2.61
2018-03-04T03:11:30.041Z,-2.59
2018-03-04T03:13:32.708Z,-2.50
2018-03-04T03:15:35.310Z,-2.59
2018-03-04T03:17:37.757Z,-2.49
2018-03-04T03:19:40.288Z,-2.50
2018-03-04T03:21:42.813Z,-2.53
2018-03-04T03:23:45.381Z,-2.61
2018-03-04T03:25:47.848Z,-2.57
2018-03-04T03:27:50.357Z,-2.53
2018-03-04T03:29:52.826Z,-2.53
2018-03-04T03:31:55.298Z,-2.54
2018-03-04T03:33:57.767Z,-2.57
2018-03-04T03:36:00.250Z,-2.67
2018-03-04T03:38:02.732Z,-2.58
2018-03-04T03:40:05.218Z,-2.64
2018-03-04T03:42:07.713Z,-2.61
2018-03-04T03:44:10.171Z,-2.59
2018-03-04T03:46:12.662Z,-2.57
2018-03-04T03:48:15.168Z,-2.50
2018-03-04T03:50:17.621Z,-2.62
2018-03-04T03:52:20.129Z,-2.61
2018-03-04T03:54:22.674Z,-2.65
2018-03-04T03:56:25.113Z,-2.64
2018-03-04T03:58:27.709Z,-2.67
2018-03-04T04:00:30.234Z,-2.64
2018-03-04T04:02:32.680Z,-2.62
2018-03-04T04:04:35.172Z,-2.71
2018-03-04T04:06:37.609Z,-2.81
2018-03-04T04:08:40.186Z,-2.77
2018-03-04T04:10:42.728Z,-2.74
2018-03-04T04:12:45.179Z,-2.72
2018-03-04T04:14:47.650Z,-2.66
2018-03-04T04:16:50.130Z,-2.62
2018-03-04T04:18:52.691Z,-2.63
2018-03-04T04:20:55.188Z,-2.62
2018-03-04T04:22:57.674Z,-2.62
2018-03-04T04:25:00.130Z,-2.79
2018-03-04T04:27:02.578Z,-2.79
2018-03-04T04:29:05.072Z,-2.82
2018-03-04T04:31:07.657Z,-2.95
2018-03-04T04:33:10.130Z,-2.97
2018-03-04T04:35:12.674Z,-3.09
2018-03-04T04:37:15.236Z,-3.07
2018-03-04T04:39:17.769Z,-3.18
2018-03-04T04:41:20.333Z,-3.20
2018-03-04T04:43:22.839Z,-3.15
2018-03-04T04:45:25.342Z,-3.18
2018-03-04T04:47:27.909Z,-3.17
2018-03-04T04:49:30.395Z,-3.10
2018-03-04T04:51:32.887Z,-3.15
2018-03-04T04:53:35.339Z,-3.11
2018-03-04T04:55:37.856Z,-3.22
2018-03-04T04:57:40.372Z,-3.22
2018-03-04T04:59:42.819Z,-3.21
2018-03-04T05:01:45.323Z,-3.24
2018-03-04T05:03:47.851Z,-3.20
2018-03-04T05:05:50.340Z,-3.26
2018-03-04T05:07:52.930Z,-3.37
2018-03-04T05:09:55.389Z,-3.36
2018-03-04T05:11:57.969Z,-3.38
2018-03-04T05:14:00.522Z,-3.39
2018-03-04T05:16:03.008Z,-3.45
2018-03-04T05:18:05.481Z,-3.46
2018-03-04T05:20:07.950Z,-3.43
2018-03-04T05:22:10.484Z,-3.43
2018-03-04T05:24:12.944Z,-3.32
2018-03-04T05:26:15.374Z,-3.32
2018-03-04T05:28:17.871Z,-3.35
2018-03-04T05:30:20.327Z,-3.46
2018-03-04T05:32:22.830Z,-3.53
2018-03-04T05:34:25.322Z,-3.47
2018-03-04T05:36:27.769Z,-3.40
2018-03-04T05:38:30.263Z,-3.34
2018-03-04T05:40:32.773Z,-3.39
2018-03-04T05:42:35.270Z,-3.48
2018-03-04T05:44:37.739Z,-3.47
2018-03-04T05:46:40.309Z,-3.40
2018-03-04T05:48:42.795Z,-3.32
2018-03-04T05:50:45.292Z,-3.33
2018-03-04T05:52:47.888Z,-3.28
2018-03-04T05:54:50.346Z,-3.32
2018-03-04T05:56:53.899Z,-3.26
2018-03-04T05:58:56.350Z,-3.24
2018-03-04T06:00:58.992Z,-3.30
2018-03-04T06:03:01.440Z,-3.27
2018-03-04T06:05:03.902Z,-3.34
2018-03-04T06:07:06.409Z,-3.40
2018-03-04T06:09:09.060Z,-3.33
2018-03-04T06:11:11.526Z,-3.27
2018-03-04T06:13:14.013Z,-3.25
2018-03-04T06:15:16.435Z,-3.20
2018-03-04T06:17:18.969Z,-3.17
2018-03-04T06:19:21.444Z,-3.06
2018-03-04T06:21:23.897Z,-3.07
2018-03-04T06:23:26.390Z,-3.02
2018-03-04T06:25:28.875Z,-2.90
2018-03-04T06:27:31.365Z,-2.88
2018-03-04T06:29:33.990Z,-2.83
2018-03-04T06:31:36.466Z,-2.82
2018-03-04T06:33:38.979Z,-2.81
2018-03-04T06:35:41.473Z,-2.79
2018-03-04T06:37:43.976Z,-2.79
2018-03-04T06:39:46.419Z,-2.78
2018-03-04T06:41:48.946Z,-2.69
2018-03-04T06:43:51.465Z,-2.61
2018-03-04T06:45:53.926Z,-2.77
2018-03-04T06:47:56.400Z,-2.60
2018-03-04T06:49:59.036Z,-2.49
2018-03-04T06:52:01.490Z,-2.47
2018-03-04T06:54:04.010Z,-2.38
2018-03-04T06:56:06.484Z,-2.37
2018-03-04T06:58:08.931Z,-2.32
2018-03-04T07:00:11.594Z,-2.26
2018-03-04T07:02:14.062Z,-2.20
2018-03-04T07:04:16.629Z,-2.23
2018-03-04T07:06:19.169Z,-2.06
2018-03-04T07:08:21.642Z,-2.10
2018-03-04T07:10:24.130Z,-2.09
2018-03-04T07:12:26.625Z,-2.19
2018-03-04T07:14:29.150Z,-2.08
2018-03-04T07:16:31.779Z,-2.07
2018-03-04T07:18:34.355Z,-1.94
2018-03-04T07:20:36.835Z,-1.89
2018-03-04T07:22:39.428Z,-1.88
2018-03-04T07:24:41.894Z,-1.77
2018-03-04T07:26:44.390Z,-1.79
2018-03-04T07:28:46.914Z,-1.77
2018-03-04T07:30:49.380Z,-1.73
2018-03-04T07:32:51.950Z,-1.63
2018-03-04T07:34:54.446Z,-1.52
2018-03-04T07:36:56.979Z,-1.57
2018-03-04T07:38:59.476Z,-1.49
2018-03-04T07:41:01.963Z,-1.43
2018-03-04T07:43:04.454Z,-1.48
2018-03-04T07:45:07.057Z,-1.40
2018-03-04T07:47:09.549Z,-1.38
2018-03-04T07:49:12.129Z,-1.25
2018-03-04T07:51:14.662Z,-1.21
2018-03-04T07:53:17.234Z,-1.17
2018-03-04T07:55:19.722Z,-1.11
2018-03-04T07:57:22.220Z,-1.17
2018-03-04T07:59:24.702Z,-1.06
2018-03-04T08:01:27.307Z,-1.05
2018-03-04T08:03:29.794Z,-1.01
2018-03-04T08:05:32.286Z,-0.86
2018-03-04T08:07:34.815Z,-0.72
2018-03-04T08:09:37.379Z,-0.53
2018-03-04T08:11:39.870Z,-0.46
2018-03-04T08:13:42.370Z,-0.65
2018-03-04T08:15:44.855Z,-0.59
2018-03-04T08:17:47.405Z,-0.57
2018-03-04T08:19:49.916Z,-0.37
2018-03-04T08:21:52.427Z,-0.14
2018-03-04T08:23:54.885Z,-0.17
2018-03-04T08:26:08.993Z,0.12
2018-03-04T08:28:23.160Z,0.14
2018-03-04T08:30:25.850Z,0.12
2018-03-04T08:32:28.322Z,0.24
2018-03-04T08:34:30.820Z,0.39
2018-03-04T08:36:33.306Z,0.34
2018-03-04T08:38:35.806Z,0.28
2018-03-04T08:40:38.315Z,0.09
2018-03-04T08:42:40.796Z,0.21
2018-03-04T08:44:43.260Z,0.34
2018-03-04T08:46:45.800Z,0.25
2018-03-04T08:48:48.286Z,0.22
2018-03-04T08:50:50.886Z,0.08
2018-03-04T08:52:53.451Z,0.30
2018-03-04T08:54:55.940Z,0.50
2018-03-04T08:56:58.436Z,0.52
2018-03-04T08:59:00.957Z,0.39
2018-03-04T09:01:03.460Z,0.39
2018-03-04T09:03:06.018Z,0.32
2018-03-04T09:05:08.510Z,0.40
2018-03-04T09:07:11.001Z,0.50
2018-03-04T09:09:13.497Z,0.52
2018-03-04T09:11:16.012Z,0.59
2018-03-04T09:13:18.469Z,0.43
2018-03-04T09:15:21.017Z,0.50
2018-03-04T09:17:23.472Z,0.49
2018-03-04T09:19:26.103Z,0.57
2018-03-04T09:21:28.606Z,0.71
2018-03-04T09:23:31.089Z,0.75
2018-03-04T09:25:33.650Z,0.86
2018-03-04T09:27:36.176Z,1.08
2018-03-04T09:29:38.688Z,1.25
2018-03-04T09:31:41.202Z,1.31
2018-03-04T09:33:43.750Z,1.33
2018-03-04T09:35:46.283Z,1.31
2018-03-04T09:37:48.938Z,1.38
2018-03-04T09:39:51.441Z,1.46
2018-03-04T09:41:53.922Z,1.49
2018-03-04T09:43:56.526Z,1.63
2018-03-04T09:45:58.988Z,1.70
2018-03-04T09:48:01.481Z,1.92
2018-03-04T09:50:03.979Z,2.05
2018-03-04T09:52:06.491Z,2.01
2018-03-04T09:54:09.011Z,2.05
2018-03-04T09:56:11.479Z,2.02
2018-03-04T09:58:15.046Z,1.93
2018-03-04T10:00:17.593Z,2.01
2018-03-04T10:02:20.193Z,2.01
2018-03-04T10:04:22.678Z,2.37
2018-03-04T10:06:25.162Z,2.36
2018-03-04T10:08:27.668Z,2.29
2018-03-04T10:10:30.158Z,2.17
2018-03-04T10:12:32.681Z,2.10
2018-03-04T10:14:35.186Z,2.02
2018-03-04T10:16:37.654Z,2.14
2018-03-04T10:18:40.251Z,2.17
2018-03-04T10:20:42.843Z,2.20
2018-03-04T10:22:45.317Z,2.17
2018-03-04T10:24:47.934Z,2.29
2018-03-04T10:26:50.418Z,2.20
2018-03-04T10:28:52.891Z,2.27
2018-03-04T10:30:55.498Z,2.16
2018-03-04T10:32:57.961Z,2.52
2018-03-04T10:35:00.428Z,2.69
2018-03-04T10:37:02.947Z,2.73
2018-03-04T10:39:05.399Z,2.78
2018-03-04T10:41:07.962Z,2.76
2018-03-04T10:43:10.562Z,2.70
2018-03-04T10:45:13.059Z,2.62
2018-03-04T10:47:15.575Z,2.76
2018-03-04T10:49:18.142Z,2.83
2018-03-04T10:51:20.643Z,2.93
2018-03-04T10:53:24.307Z,2.93
2018-03-04T10:55:26.834Z,2.97
2018-03-04T10:57:29.307Z,3.05
2018-03-04T10:59:31.814Z,3.06
2018-03-04T11:01:35.073Z,3.02
2018-03-04T11:03:37.562Z,3.09
2018-03-04T11:05:40.122Z,3.00
2018-03-04T11:07:42.623Z,3.11
2018-03-04T11:09:45.266Z,3.39
2018-03-04T11:11:47.749Z,3.46
2018-03-04T11:13:50.269Z,3.60
2018-03-04T11:15:52.793Z,3.50
2018-03-04T11:17:55.270Z,3.70
2018-03-04T11:19:57.791Z,3.65
2018-03-04T11:22:00.317Z,3.76
2018-03-04T11:24:02.818Z,3.85
2018-03-04T11:26:06.138Z,3.92
2018-03-04T11:28:08.607Z,4.22
2018-03-04T11:30:12.118Z,4.63
2018-03-04T11:32:14.677Z,4.57
2018-03-04T11:34:17.287Z,4.54
2018-03-04T11:36:19.808Z,4.81
2018-03-04T11:38:22.387Z,4.83
2018-03-04T11:40:24.902Z,4.83
2018-03-04T11:42:27.489Z,5.04
2018-03-04T11:44:30.098Z,5.03
2018-03-04T11:46:32.708Z,5.17
2018-03-04T11:48:35.232Z,5.13
2018-03-04T11:50:37.666Z,5.12
2018-03-04T11:52:40.135Z,4.97
2018-03-04T11:54:42.649Z,5.00
2018-03-04T11:56:45.224Z,5.03
2018-03-04T11:58:47.738Z,5.04
2018-03-04T12:00:50.209Z,5.05
2018-03-04T12:02:52.746Z,5.04
2018-03-04T12:04:55.294Z,5.40
2018-03-04T12:06:57.798Z,5.40
2018-03-04T12:09:00.300Z,5.70
2018-03-04T12:11:02.830Z,5.76
2018-03-04T12:13:05.341Z,5.72
2018-03-04T12:15:07.833Z,5.63
2018-03-04T12:17:10.414Z,5.63
2018-03-04T12:19:13.065Z,5.56
2018-03-04T12:21:15.590Z,5.56
2018-03-04T12:23:18.082Z,5.45
2018-03-04T12:25:20.641Z,5.27
2018-03-04T12:27:23.149Z,4.97
2018-03-04T12:29:25.659Z,4.91
2018-03-04T12:31:28.771Z,5.10
2018-03-04T12:33:31.346Z,5.12
2018-03-04T12:35:34.025Z,5.23
2018-03-04T12:37:36.512Z,5.30
2018-03-04T12:39:39.133Z,5.30
2018-03-04T12:41:41.764Z,5.23
2018-03-04T12:43:44.289Z,5.30
2018-03-04T12:45:46.769Z,5.42
2018-03-04T12:47:49.269Z,5.48
2018-03-04T12:49:51.754Z,5.40
2018-03-04T12:51:54.283Z,5.49
2018-03-04T12:53:56.849Z,5.38
2018-03-04T12:55:59.315Z,5.28
2018-03-04T12:58:01.860Z,5.28
2018-03-04T13:00:04.361Z,5.23
2018-03-04T13:02:06.908Z,5.31
2018-03-04T13:04:09.454Z,5.37
2018-03-04T13:06:11.909Z,5.31
2018-03-04T13:08:14.430Z,5.23
2018-03-04T13:10:16.899Z,5.17
2018-03-04T13:12:19.390Z,5.10
2018-03-04T13:14:21.924Z,5.16
2018-03-04T13:16:24.370Z,5.20
2018-03-04T13:18:26.977Z,5.16
2018-03-04T13:20:29.464Z,5.33
2018-03-04T13:22:31.975Z,5.28
2018-03-04T13:24:34.471Z,5.34
2018-03-04T13:26:37.079Z,5.34
2018-03-04T13:28:39.593Z,5.42
2018-03-04T13:30:42.071Z,5.47
2018-03-04T13:32:44.560Z,5.51
2018-03-04T13:34:47.143Z,5.48
2018-03-04T13:36:49.611Z,5.52
2018-03-04T13:38:52.124Z,5.48
2018-03-04T13:40:54.672Z,5.51
2018-03-04T13:42:57.215Z,5.51
2018-03-04T13:44:59.772Z,5.57
2018-03-04T13:47:02.284Z,5.64
2018-03-04T13:49:04.778Z,5.57
2018-03-04T13:51:07.302Z,5.68
2018-03-04T13:53:09.821Z,5.68
2018-03-04T13:55:12.384Z,5.66
2018-03-04T13:57:14.906Z,5.56
2018-03-04T13:59:17.371Z,5.57
2018-03-04T14:01:19.983Z,5.55
2018-03-04T14:03:22.506Z,5.56
2018-03-04T14:05:24.998Z,5.51
2018-03-04T14:07:27.529Z,5.47
2018-03-04T14:09:30.070Z,5.41
2018-03-04T14:11:32.630Z,5.18
2018-03-04T14:13:35.122Z,5.18
2018-03-04T14:15:37.622Z,5.11
2018-03-04T14:17:40.164Z,5.19
2018-03-04T14:19:42.647Z,5.28
2018-03-04T14:21:45.160Z,5.32
2018-03-04T14:23:47.807Z,5.37
2018-03-04T14:25:50.406Z,5.25
2018-03-04T14:27:52.892Z,5.31
2018-03-04T14:29:55.470Z,5.53
2018-03-04T14:31:57.991Z,5.47
2018-03-04T14:34:00.493Z,5.55
2018-03-04T14:36:03.025Z,5.51
2018-03-04T14:38:05.489Z,5.57
2018-03-04T14:40:08.044Z,5.60
2018-03-04T14:42:10.525Z,5.60
2018-03-04T14:44:13.156Z,5.56
2018-03-04T14:46:15.817Z,5.62
2018-03-04T14:48:18.399Z,5.60
2018-03-04T14:50:20.890Z,5.66
2018-03-04T14:52:23.392Z,5.65
2018-03-04T14:54:25.920Z,5.59
2018-03-04T14:56:28.438Z,5.50
2018-03-04T14:58:30.918Z,5.63
2018-03-04T15:00:33.501Z,5.59
2018-03-04T15:02:35.993Z,5.54
2018-03-04T15:04:38.675Z,5.55
2018-03-04T15:06:41.181Z,5.47
2018-03-04T15:08:43.681Z,5.47
2018-03-04T15:10:46.470Z,5.49
2018-03-04T15:12:49.036Z,5.41
2018-03-04T15:14:51.701Z,5.53
2018-03-04T15:16:54.316Z,5.48
2018-03-04T15:18:57.166Z,5.43
2018-03-04T15:20:59.746Z,5.41
2018-03-04T15:23:02.271Z,5.59
2018-03-04T15:25:04.742Z,5.61
2018-03-04T15:27:07.333Z,5.59
2018-03-04T15:29:09.872Z,5.62
2018-03-04T15:31:12.343Z,5.57
2018-03-04T15:33:14.948Z,5.62
2018-03-04T15:35:18.021Z,5.67
2018-03-04T15:37:20.743Z,5.50
2018-03-04T15:39:23.224Z,5.63
2018-03-04T15:41:25.810Z,5.50
2018-03-04T15:43:28.561Z,5.40
2018-03-04T15:45:31.537Z,5.49
2018-03-04T15:47:34.104Z,5.46
2018-03-04T15:49:36.828Z,5.34
2018-03-04T15:51:40.526Z,5.32
2018-03-04T15:53:44.115Z,5.20
2018-03-04T15:55:47.529Z,5.17
2018-03-04T15:57:50.436Z,5.24
2018-03-04T15:59:53.013Z,5.21
2018-03-04T16:01:57.558Z,5.13
2018-03-04T16:04:01.072Z,5.11
2018-03-04T16:06:05.243Z,5.09
2018-03-04T16:08:09.501Z,5.04
2018-03-04T16:10:13.970Z,4.90
2018-03-04T16:12:16.604Z,4.89
2018-03-04T16:14:19.715Z,4.88
2018-03-04T16:16:23.115Z,4.83
2018-03-04T16:18:26.208Z,4.86
2018-03-04T16:20:28.809Z,4.83
2018-03-04T16:22:31.388Z,4.82
2018-03-04T16:24:34.212Z,4.74
2018-03-04T16:26:37.049Z,4.80
2018-03-04T16:28:39.764Z,4.84
2018-03-04T16:30:42.937Z,4.79
2018-03-04T16:32:47.661Z,4.87
2018-03-04T16:34:52.043Z,4.77
2018-03-04T16:36:55.644Z,4.72
2018-03-04T16:38:59.543Z,4.73
2018-03-04T16:41:02.511Z,4.73
2018-03-04T16:43:06.524Z,4.73
2018-03-04T16:45:10.672Z,4.68
2018-03-04T16:47:13.248Z,4.75
2018-03-04T16:49:15.761Z,4.75
2018-03-04T16:51:18.402Z,4.66
2018-03-04T16:53:21.108Z,4.67
2018-03-04T16:55:23.646Z,4.68
2018-03-04T16:57:26.220Z,4.65
2018-03-04T16:59:29.543Z,4.52
2018-03-04T17:01:35.159Z,4.60
2018-03-04T17:03:38.227Z,4.57
2018-03-04T17:05:41.004Z,4.53
2018-03-04T17:07:43.578Z,4.53
2018-03-04T17:09:46.398Z,4.49
2018-03-04T17:11:49.094Z,4.44
2018-03-04T17:13:51.636Z,4.47
2018-03-04T17:15:55.099Z,4.43
2018-03-04T17:17:57.632Z,4.41
2018-03-04T17:20:00.732Z,4.42
2018-03-04T17:22:03.237Z,4.33
2018-03-04T17:24:08.698Z,4.26
2018-03-04T17:26:12.388Z,4.27
2018-03-04T17:28:15.107Z,4.20
2018-03-04T17:30:17.955Z,4.28
2018-03-04T17:32:23.638Z,4.27
2018-03-04T17:34:27.038Z,4.29
2018-03-04T17:36:29.548Z,4.35
2018-03-04T17:38:32.072Z,4.48
2018-03-04T17:40:34.545Z,4.34
2018-03-04T17:42:37.110Z,4.41
2018-03-04T17:44:39.683Z,4.30
2018-03-04T17:46:42.173Z,4.35
2018-03-04T17:48:44.642Z,4.38
2018-03-04T17:50:48.140Z,4.39
2018-03-04T17:52:50.712Z,4.42
2018-03-04T17:54:53.195Z,4.42
2018-03-04T17:56:55.772Z,4.20
2018-03-04T17:58:58.332Z,4.28
2018-03-04T18:01:00.879Z,4.12
2018-03-04T18:03:03.523Z,4.13
2018-03-04T18:05:06.094Z,3.94
2018-03-04T18:07:08.666Z,3.90
2018-03-04T18:09:11.177Z,3.94
2018-03-04T18:11:18.737Z,3.88
2018-03-04T18:13:23.443Z,3.83
2018-03-04T18:15:26.072Z,3.87
2018-03-04T18:17:29.325Z,3.91
2018-03-04T18:19:33.995Z,3.92
2018-03-04T18:21:38.603Z,3.93
2018-03-04T18:23:41.221Z,3.92
2018-03-04T18:25:43.750Z,3.99
2018-03-04T18:27:48.975Z,4.02
2018-03-04T18:29:53.109Z,4.12
2018-03-04T18:31:55.778Z,4.06
2018-03-04T18:33:58.296Z,4.05
2018-03-04T18:36:00.802Z,4.10
2018-03-04T18:38:03.337Z,4.08
2018-03-04T18:40:05.829Z,4.13
2018-03-04T18:42:08.348Z,4.06
2018-03-04T18:44:10.892Z,3.98
2018-03-04T18:46:13.387Z,4.03
2018-03-04T18:48:15.935Z,4.06
2018-03-04T18:50:19.145Z,4.06
2018-03-04T18:52:21.615Z,4.03
2018-03-04T18:54:24.324Z,4.03
2018-03-04T18:56:28.146Z,4.00
2018-03-04T18:58:32.992Z,4.12
2018-03-04T19:00:35.514Z,4.13
2018-03-04T19:02:38.275Z,4.17
2018-03-04T19:04:40.913Z,4.17
2018-03-04T19:06:43.476Z,4.17
2018-03-04T19:08:45.993Z,4.05
2018-03-04T19:10:48.515Z,4.03
2018-03-04T19:12:51.003Z,3.97
2018-03-04T19:14:55.481Z,3.99
2018-03-04T19:16:59.602Z,4.04
2018-03-04T19:19:02.129Z,4.04
2018-03-04T19:21:04.690Z,4.07
2018-03-04T19:23:07.314Z,4.06
2018-03-04T19:25:09.851Z,3.97
2018-03-04T19:27:12.378Z,3.98
2018-03-04T19:29:18.735Z,3.93
2018-03-04T19:31:21.284Z,4.04
2018-03-04T19:33:23.795Z,4.06
2018-03-04T19:35:26.484Z,4.12
2018-03-04T19:37:30.050Z,4.20
2018-03-04T19:39:33.098Z,4.31
2018-03-04T19:41:35.698Z,4.30
2018-03-04T19:43:38.255Z,4.30
2018-03-04T19:45:42.519Z,4.28
2018-03-04T19:47:45.227Z,4.32
2018-03-04T19:49:49.071Z,4.29
2018-03-04T19:51:51.625Z,4.30
2018-03-04T19:53:54.178Z,4.31
2018-03-04T19:55:56.704Z,4.35
2018-03-04T19:57:59.200Z,4.34
2018-03-04T20:00:01.790Z,4.36
2018-03-04T20:02:04.279Z,4.46
2018-03-04T20:04:06.776Z,4.35
2018-03-04T20:06:09.450Z,4.37
2018-03-04T20:08:11.941Z,4.33
2018-03-04T20:10:14.444Z,4.37
2018-03-04T20:12:17.012Z,4.45
2018-03-04T20:14:19.537Z,4.37
2018-03-04T20:16:22.148Z,4.42
2018-03-04T20:18:24.785Z,4.46
2018-03-04T20:20:27.359Z,4.42
2018-03-04T20:22:29.866Z,4.45
2018-03-04T20:24:32.394Z,4.39
2018-03-04T20:26:34.944Z,4.46
2018-03-04T20:28:38.329Z,4.51
2018-03-04T20:30:42.373Z,4.62
2018-03-04T20:32:44.972Z,4.66
2018-03-04T20:34:47.561Z,4.62
2018-03-04T20:36:50.182Z,4.62
2018-03-04T20:38:52.779Z,4.60
2018-03-04T20:40:57.721Z,4.63
2018-03-04T20:43:01.099Z,4.56
2018-03-04T20:45:06.106Z,4.67
2018-03-04T20:47:08.690Z,4.65
2018-03-04T20:49:11.370Z,4.64
2018-03-04T20:51:14.328Z,4.56
2018-03-04T20:53:16.961Z,4.58
2018-03-04T20:55:19.803Z,4.58
2018-03-04T20:57:22.440Z,4.44
2018-03-04T20:59:26.900Z,4.50
2018-03-04T21:01:29.621Z,4.48
2018-03-04T21:03:33.731Z,4.47
2018-03-04T21:05:36.236Z,4.57
2018-03-04T21:07:38.740Z,4.48
2018-03-04T21:09:41.306Z,4.41
2018-03-04T21:11:43.813Z,4.51
2018-03-04T21:13:47.109Z,4.50
2018-03-04T21:15:50.905Z,4.41
2018-03-04T21:17:53.504Z,4.49
2018-03-04T21:19:56.056Z,4.49
2018-03-04T21:21:58.519Z,4.39
2018-03-04T21:24:05.353Z,4.46
2018-03-04T21:26:18.237Z,4.53
2018-03-04T21:28:29.788Z,4.49
2018-03-04T21:30:32.391Z,4.45
2018-03-04T21:32:35.660Z,4.44
2018-03-04T21:34:38.192Z,4.59
2018-03-04T21:36:40.702Z,4.66
2018-03-04T21:38:43.721Z,4.66
2018-03-04T21:40:46.424Z,4.60
2018-03-04T21:42:50.827Z,4.63
2018-03-04T21:44:54.874Z,4.56
2018-03-04T21:46:57.477Z,4.57
2018-03-04T21:49:00.295Z,4.56
2018-03-04T21:51:07.035Z,4.47
2018-03-04T21:53:11.491Z,4.53
2018-03-04T21:55:15.043Z,4.71
2018-03-04T21:57:20.020Z,4.71
2018-03-04T21:59:24.246Z,4.68
2018-03-04T22:01:27.702Z,4.60
2018-03-04T22:03:30.652Z,4.53
2018-03-04T22:05:33.128Z,4.58
2018-03-04T22:07:35.822Z,4.61
2018-03-04T22:09:38.376Z,4.58
2018-03-04T22:11:40.922Z,4.46
2018-03-04T22:13:43.469Z,4.42
2018-03-04T22:15:46.002Z,4.45
2018-03-04T22:17:48.564Z,4.45
2018-03-04T22:19:51.117Z,4.43
2018-03-04T22:21:53.615Z,4.44
2018-03-04T22:23:56.163Z,4.34
2018-03-04T22:25:59.618Z,4.46
2018-03-04T22:28:02.641Z,4.37
2018-03-04T22:30:05.182Z,4.49
2018-03-04T22:32:08.482Z,4.63
2018-03-04T22:34:10.975Z,4.64
2018-03-04T22:36:13.605Z,4.69
2018-03-04T22:38:16.132Z,4.76
2018-03-04T22:40:18.617Z,4.88
2018-03-04T22:42:21.218Z,4.78
2018-03-04T22:44:23.752Z,4.71
2018-03-04T22:46:26.217Z,4.59
2018-03-04T22:48:28.691Z,4.50
2018-03-04T22:50:31.177Z,4.59
2018-03-04T22:52:33.749Z,4.64
2018-03-04T22:54:36.284Z,4.60
2018-03-04T22:56:38.775Z,4.65
2018-03-04T22:58:41.322Z,4.69
2018-03-04T23:00:43.825Z,4.75
2018-03-04T23:02:46.322Z,4.81
2018-03-04T23:04:48.822Z,4.86
2018-03-04T23:06:51.313Z,4.74
2018-03-04T23:08:53.893Z,4.61
2018-03-04T23:10:56.417Z,4.58
2018-03-04T23:12:58.936Z,4.44
2018-03-04T23:15:01.586Z,4.52
2018-03-04T23:17:04.183Z,4.66
2018-03-04T23:19:06.706Z,4.65
2018-03-04T23:21:09.262Z,4.57
2018-03-04T23:23:11.776Z,4.54
2018-03-04T23:25:14.281Z,4.64
2018-03-04T23:27:16.773Z,4.51
2018-03-04T23:29:19.304Z,4.35
2018-03-04T23:31:21.753Z,4.39
2018-03-04T23:33:25.287Z,4.33
2018-03-04T23:35:27.865Z,4.34
2018-03-04T23:37:30.428Z,4.30
2018-03-04T23:39:32.966Z,4.54
2018-03-04T23:41:35.402Z,4.57
2018-03-04T23:43:37.917Z,4.60
2018-03-04T23:45:40.453Z,4.63
2018-03-04T23:47:42.945Z,4.62
2018-03-04T23:49:45.432Z,4.74
2018-03-04T23:51:47.929Z,4.73
2018-03-04T23:53:50.416Z,4.72
2018-03-04T23:55:52.901Z,4.77
2018-03-04T23:57:55.367Z,4.67
2018-03-04T23:59:57.861Z,4.61
